Time;durP1;ratioP1;P1;durP2;ratioP2;P2;SDS_P1;SDS_P2;PMS_P1;PMS_P2;Temp;Humidity;BMP_temperature;BMP_pressure;BME280_temperature;BME280_humidity;BME280_pressure;Samples;Min_cycle;Max_cycle;Signal;HPM_P1;HPM_P2
2022/12/13 00:00:46;;;;;;;4.10;2.70;;;-1.10;99.90;;;;;;5055474;28;20059;-79
2022/12/13 00:03:13;;;;;;;3.38;2.42;;;-1.10;99.90;;;;;;5036372;28;20416;-79
2022/12/13 00:05:43;;;;;;;4.35;2.83;;;-1.10;99.90;;;;;;5045140;28;20531;-80
2022/12/13 00:08:11;;;;;;;4.28;2.65;;;-1.10;99.90;;;;;;5042446;28;20075;-79
2022/12/13 00:10:38;;;;;;;4.38;2.63;;;-1.10;99.90;;;;;;5042438;28;20095;-79
2022/12/13 00:13:04;;;;;;;4.22;2.60;;;-1.10;99.90;;;;;;5053381;28;20060;-78
2022/12/13 00:15:31;;;;;;;4.57;2.95;;;-1.10;99.90;;;;;;5044287;28;20135;-78
2022/12/13 00:17:58;;;;;;;3.50;2.38;;;-1.20;99.90;;;;;;5039088;28;20110;-78
2022/12/13 00:20:25;;;;;;;4.40;2.75;;;-1.20;99.90;;;;;;5051569;28;20545;-79
2022/12/13 00:22:52;;;;;;;3.42;2.53;;;-1.20;99.90;;;;;;5040465;28;20143;-79
2022/12/13 00:25:20;;;;;;;4.43;2.80;;;-1.30;99.90;;;;;;5055365;28;20592;-79
2022/12/13 00:27:47;;;;;;;3.70;2.42;;;-1.30;99.90;;;;;;5049750;28;20084;-78
2022/12/13 00:30:13;;;;;;;4.65;2.95;;;-1.30;99.90;;;;;;5036697;28;20048;-79
2022/12/13 00:32:40;;;;;;;4.65;2.80;;;-1.30;99.90;;;;;;5059058;28;20049;-79
2022/12/13 00:35:07;;;;;;;3.63;2.72;;;-1.30;99.90;;;;;;5046426;28;20583;-79
2022/12/13 00:37:34;;;;;;;4.00;2.53;;;-1.30;99.90;;;;;;5037430;28;20338;-79
2022/12/13 00:40:01;;;;;;;3.80;2.60;;;-1.30;99.90;;;;;;5039102;28;20488;-79
2022/12/13 00:42:27;;;;;;;3.95;2.70;;;-1.30;99.90;;;;;;5035492;28;20052;-78
2022/12/13 00:44:54;;;;;;;3.53;2.67;;;-1.30;99.90;;;;;;5046093;28;20048;-79
2022/12/13 00:47:22;;;;;;;3.72;2.63;;;-1.30;99.90;;;;;;5043550;28;20056;-79
2022/12/13 00:49:49;;;;;;;4.28;2.65;;;-1.40;99.90;;;;;;5043997;28;20411;-79
2022/12/13 00:52:15;;;;;;;3.63;2.50;;;-1.40;99.90;;;;;;5042225;28;20056;-79
2022/12/13 00:54:42;;;;;;;4.18;2.67;;;-1.40;99.90;;;;;;5035496;28;20060;-78
2022/12/13 00:57:09;;;;;;;4.82;3.35;;;-1.40;99.90;;;;;;5043024;28;20052;-79
2022/12/13 00:59:36;;;;;;;5.35;3.33;;;-1.40;99.90;;;;;;5054228;28;20807;-79
2022/12/13 01:02:02;;;;;;;3.75;2.35;;;-1.40;99.90;;;;;;5058004;28;20052;-78
2022/12/13 01:04:29;;;;;;;4.30;2.63;;;-1.40;99.90;;;;;;5058531;28;20115;-79
2022/12/13 01:06:56;;;;;;;4.45;2.85;;;-1.40;99.90;;;;;;5039324;28;20453;-79
2022/12/13 01:09:26;;;;;;;4.60;3.10;;;-1.40;99.90;;;;;;5053295;28;20144;-80
2022/12/13 01:12:04;;;;;;;4.50;3.15;;;-1.40;99.90;;;;;;5034725;28;20186;-79
2022/12/13 01:14:30;;;;;;;4.28;2.72;;;-1.50;99.90;;;;;;5042844;28;20048;-79
2022/12/13 01:16:57;;;;;;;5.13;3.08;;;-1.50;99.90;;;;;;5049771;28;20396;-79
2022/12/13 01:19:25;;;;;;;4.63;3.10;;;-1.50;99.90;;;;;;5040052;28;20052;-79
2022/12/13 01:21:56;;;;;;;5.30;3.17;;;-1.50;99.90;;;;;;5040721;28;20057;-78
2022/12/13 01:24:25;;;;;;;4.50;3.13;;;-1.50;99.90;;;;;;5054876;28;20133;-79
2022/12/13 01:26:52;;;;;;;4.90;2.90;;;-1.40;99.90;;;;;;5037523;28;20059;-78
2022/12/13 01:29:23;;;;;;;4.75;3.33;;;-1.40;99.90;;;;;;5054764;28;20601;-79
2022/12/13 01:31:51;;;;;;;4.70;2.90;;;-1.40;99.90;;;;;;5041197;28;20052;-79
2022/12/13 01:34:19;;;;;;;5.30;3.60;;;-1.40;99.90;;;;;;5035900;28;20055;-79
2022/12/13 01:36:46;;;;;;;5.50;3.53;;;-1.40;99.90;;;;;;5049160;28;20078;-79
2022/12/13 01:39:15;;;;;;;4.63;3.38;;;-1.30;99.90;;;;;;5027655;28;20070;-79
2022/12/13 01:41:47;;;;;;;5.30;3.13;;;-1.30;99.90;;;;;;5060607;28;20066;-79
2022/12/13 01:44:51;;;;;;;5.18;3.38;;;-1.40;99.90;;;;;;5027989;28;20059;-79
2022/12/13 01:47:26;;;;;;;;;;;-1.40;99.90;;;;;;5064259;28;20155;-79
2022/12/13 01:49:53;;;;;;;5.28;3.17;;;-1.30;99.90;;;;;;5061472;28;19927;-78
2022/12/13 01:52:20;;;;;;;4.13;3.00;;;-1.30;99.90;;;;;;5043455;28;20500;-78
2022/12/13 01:54:48;;;;;;;4.85;3.60;;;-1.40;99.90;;;;;;5044655;28;20062;-78
2022/12/13 01:57:16;;;;;;;6.07;3.67;;;-1.40;99.90;;;;;;5009289;28;20133;-78
2022/12/13 01:59:43;;;;;;;5.72;3.70;;;-1.40;99.90;;;;;;5024657;28;20093;-78
2022/12/13 02:02:10;;;;;;;6.95;3.85;;;-1.40;99.90;;;;;;5059858;28;20607;-78
2022/12/13 02:04:54;;;;;;;5.60;3.60;;;-1.40;99.90;;;;;;5044120;28;20492;-79
2022/12/13 02:07:27;;;;;;;4.80;3.00;;;-1.40;99.90;;;;;;5027852;28;20060;-78
2022/12/13 02:09:56;;;;;;;5.72;3.50;;;-1.40;99.90;;;;;;5042166;28;20053;-81
2022/12/13 02:12:28;;;;;;;5.47;3.78;;;-1.40;99.90;;;;;;5060959;28;20047;-78
2022/12/13 02:14:59;;;;;;;4.60;3.07;;;-1.40;99.90;;;;;;5044146;28;20455;-78
2022/12/13 02:17:54;;;;;;;5.75;3.53;;;-1.40;99.90;;;;;;5046382;28;20407;-78
2022/12/13 02:20:45;;;;;;;4.20;2.88;;;-1.40;99.90;;;;;;5061794;28;20064;-79
2022/12/13 02:23:40;;;;;;;5.18;3.50;;;-1.40;99.90;;;;;;5042833;28;20044;-79
2022/12/13 02:26:37;;;;;;;3.90;2.92;;;-1.40;99.90;;;;;;5059061;28;20045;-79
2022/12/13 02:29:25;;;;;;;5.00;3.47;;;-1.40;99.90;;;;;;5060937;28;20055;-81
2022/12/13 02:32:07;;;;;;;5.63;3.65;;;-1.50;99.90;;;;;;5062411;28;20401;-78
2022/12/13 02:34:39;;;;;;;4.88;3.05;;;-1.50;99.90;;;;;;5045288;28;20456;-79
2022/12/13 02:37:29;;;;;;;5.00;3.00;;;-1.50;99.90;;;;;;5025058;28;20627;-79
2022/12/13 02:40:04;;;;;;;5.00;2.90;;;-1.50;99.90;;;;;;5027021;28;20063;-79
2022/12/13 02:42:36;;;;;;;5.20;3.28;;;-1.50;99.90;;;;;;5041458;28;20103;-77
2022/12/13 02:45:29;;;;;;;3.97;2.90;;;-1.50;99.90;;;;;;5046214;28;20048;-78
2022/12/13 02:47:56;;;;;;;3.90;2.88;;;-1.60;99.90;;;;;;5032475;28;20590;-78
2022/12/13 02:50:23;;;;;;;5.00;3.05;;;-1.60;99.90;;;;;;5048336;28;20167;-79
2022/12/13 02:52:50;;;;;;;4.72;3.03;;;-1.60;99.90;;;;;;5063796;28;20502;-79
2022/12/13 02:55:16;;;;;;;5.80;3.72;;;-1.60;99.90;;;;;;5031095;28;20056;-79
2022/12/13 02:57:44;;;;;;;5.38;3.42;;;-1.60;99.90;;;;;;5046884;28;20152;-79
2022/12/13 03:00:45;;;;;;;4.63;3.13;;;-1.60;99.90;;;;;;5064569;28;20052;-79
2022/12/13 03:03:40;;;;;;;4.53;3.00;;;-1.70;99.90;;;;;;5056407;28;20048;-78
2022/12/13 03:06:29;;;;;;;4.95;3.33;;;-1.70;99.90;;;;;;5048613;28;20139;-78
2022/12/13 03:09:08;;;;;;;4.22;2.78;;;-1.70;99.90;;;;;;5050249;28;20534;-79
2022/12/13 03:15:19;;;;;;;3.75;2.42;;;-1.70;99.90;;;;;;5065122;28;20144;-79
2022/12/13 03:17:52;;;;;;;4.95;2.88;;;-1.80;99.90;;;;;;5049220;28;20549;-78
2022/12/13 03:20:23;;;;;;;6.30;3.60;;;-1.80;99.90;;;;;;5048196;28;20055;-79
2022/12/13 03:22:51;;;;;;;5.00;2.83;;;-1.80;99.90;;;;;;5063246;28;20059;-79
2022/12/13 03:25:19;;;;;;;5.60;3.65;;;-1.80;99.90;;;;;;5063988;28;20040;-79
2022/12/13 03:27:59;;;;;;;4.07;2.70;;;-1.80;99.90;;;;;;5043079;28;20177;-79
2022/12/13 03:30:28;;;;;;;5.63;3.58;;;-1.80;99.90;;;;;;5044268;28;20107;-79
2022/12/13 03:32:55;;;;;;;4.97;2.83;;;-1.80;99.90;;;;;;5047452;28;20044;-79
2022/12/13 03:35:23;;;;;;;5.45;3.10;;;-1.80;99.90;;;;;;5031245;28;20049;-79
2022/12/13 03:38:00;;;;;;;4.18;2.47;;;-1.80;99.90;;;;;;5043360;28;20774;-78
2022/12/13 03:40:28;;;;;;;5.10;3.08;;;-1.80;99.90;;;;;;5060950;28;20136;-79
2022/12/13 03:42:55;;;;;;;5.43;3.03;;;-1.80;99.90;;;;;;5050196;28;20060;-79
2022/12/13 03:45:22;;;;;;;5.35;3.33;;;-1.80;99.90;;;;;;5065104;28;20127;-79
2022/12/13 03:47:50;;;;;;;4.32;2.90;;;-1.80;99.90;;;;;;5047010;28;20679;-80
2022/12/13 03:50:16;;;;;;;3.67;2.67;;;-1.90;99.90;;;;;;5064106;28;20049;-79
2022/12/13 03:53:00;;;;;;;4.97;3.00;;;-1.80;99.90;;;;;;5048300;28;20873;-79
2022/12/13 03:55:27;;;;;;;4.25;2.80;;;-1.90;99.90;;;;;;5044048;28;20165;-79
2022/12/13 03:57:54;;;;;;;4.70;2.72;;;-1.90;99.90;;;;;;5057529;28;20586;-79
2022/12/13 04:00:21;;;;;;;5.43;3.00;;;-1.90;99.90;;;;;;5063698;28;20040;-79
2022/12/13 04:02:48;;;;;;;4.85;3.42;;;-1.90;99.90;;;;;;5063582;28;20441;-79
2022/12/13 04:05:14;;;;;;;4.35;2.80;;;-1.90;99.90;;;;;;5047327;28;20076;-80
2022/12/13 04:07:43;;;;;;;4.22;2.80;;;-1.90;99.90;;;;;;5046541;28;20052;-79
2022/12/13 04:10:14;;;;;;;4.63;3.13;;;-1.90;99.90;;;;;;5047635;28;20109;-79
2022/12/13 04:15:38;;;;;;;3.50;2.50;;;-1.90;99.90;;;;;;5050434;28;20071;-79
2022/12/13 04:18:05;;;;;;;4.18;2.92;;;-2.00;99.90;;;;;;5050072;28;20055;-79
2022/12/13 04:20:31;;;;;;;3.83;2.55;;;-2.00;99.90;;;;;;5067255;28;20052;-79
2022/12/13 04:22:58;;;;;;;5.40;2.88;;;-1.90;99.90;;;;;;5049461;28;20044;-79
2022/12/13 04:25:25;;;;;;;4.30;2.70;;;-2.00;99.90;;;;;;5067256;28;20087;-79
2022/12/13 04:27:53;;;;;;;4.22;2.45;;;-2.00;99.90;;;;;;5049748;28;20131;-79
2022/12/13 04:30:19;;;;;;;3.22;2.05;;;-1.90;99.90;;;;;;5066833;28;20055;-79
2022/12/13 04:32:46;;;;;;;4.30;2.60;;;-1.90;99.90;;;;;;5049763;28;20044;-80
2022/12/13 04:35:13;;;;;;;3.97;2.40;;;-1.90;99.90;;;;;;5067742;28;20059;-79
2022/12/13 04:37:41;;;;;;;4.00;2.60;;;-1.90;99.90;;;;;;5049108;28;20048;-79
2022/12/13 04:40:09;;;;;;;3.95;2.65;;;-1.90;99.90;;;;;;5050886;28;20063;-79
2022/12/13 04:42:36;;;;;;;3.22;2.00;;;-1.90;99.90;;;;;;5048163;28;20045;-79
2022/12/13 04:45:04;;;;;;;4.00;2.55;;;-1.90;99.90;;;;;;5033178;28;20052;-79
2022/12/13 04:47:32;;;;;;;3.05;2.13;;;-1.90;99.90;;;;;;5066932;28;20045;-79
2022/12/13 04:49:59;;;;;;;2.80;1.73;;;-1.90;99.90;;;;;;5066336;28;20059;-79
2022/12/13 04:52:26;;;;;;;3.70;2.40;;;-1.90;99.90;;;;;;5063022;28;20045;-79
2022/12/13 04:54:53;;;;;;;3.65;2.17;;;-1.90;99.90;;;;;;5065733;28;20056;-79
2022/12/13 04:57:22;;;;;;;3.00;2.17;;;-1.90;99.90;;;;;;5067038;28;20052;-79
2022/12/13 04:59:48;;;;;;;3.38;1.80;;;-1.90;99.90;;;;;;5064633;28;20045;-79
2022/12/13 05:02:15;;;;;;;3.95;2.40;;;-1.90;99.90;;;;;;5050178;28;20626;-79
2022/12/13 05:04:50;;;;;;;3.17;2.20;;;-1.90;99.90;;;;;;5039689;28;20071;-79
2022/12/13 05:07:20;;;;;;;2.72;1.90;;;-1.90;99.90;;;;;;5066046;28;20052;-79
2022/12/13 05:09:47;;;;;;;2.92;2.05;;;-1.90;99.90;;;;;;5066568;28;20144;-80
2022/12/13 05:12:15;;;;;;;2.35;1.40;;;-1.90;99.90;;;;;;5049953;28;20412;-79
2022/12/13 05:14:50;;;;;;;2.65;1.70;;;-1.90;99.90;;;;;;5065995;28;20052;-80
2022/12/13 05:17:17;;;;;;;2.50;1.88;;;-1.90;99.90;;;;;;5066686;28;20052;-80
2022/12/13 05:19:44;;;;;;;2.08;1.30;;;-1.80;99.90;;;;;;5049211;28;20264;-79
2022/12/13 05:22:14;;;;;;;2.83;1.67;;;-1.90;99.90;;;;;;5049615;28;20044;-79
2022/12/13 05:24:46;;;;;;;2.58;1.65;;;-1.80;99.90;;;;;;5045835;28;20476;-80
2022/12/13 05:27:13;;;;;;;2.80;1.92;;;-1.80;99.90;;;;;;5058840;28;20060;-79
2022/12/13 05:29:52;;;;;;;3.03;1.73;;;-1.80;99.90;;;;;;5050071;28;20052;-80
2022/12/13 05:32:39;;;;;;;3.05;1.80;;;-1.80;99.90;;;;;;5050482;28;20496;-79
2022/12/13 05:35:14;;;;;;;2.85;1.67;;;-1.80;99.90;;;;;;5035302;28;20053;-80
2022/12/13 05:37:49;;;;;;;3.45;1.73;;;-1.80;99.90;;;;;;5044589;28;20053;-79
2022/12/13 05:40:27;;;;;;;2.78;1.70;;;-1.80;99.90;;;;;;5043654;28;20051;-80
2022/12/13 05:42:54;;;;;;;2.45;1.63;;;-1.80;99.90;;;;;;5045251;28;20047;-80
2022/12/13 05:45:28;;;;;;;3.47;1.83;;;-1.80;99.90;;;;;;5062116;28;20069;-80
2022/12/13 05:47:55;;;;;;;2.70;1.60;;;-1.80;99.90;;;;;;5047896;28;20049;-80
2022/12/13 05:50:22;;;;;;;5.13;2.08;;;-1.80;99.90;;;;;;5043088;28;20360;-80
2022/12/13 05:52:49;;;;;;;4.68;1.85;;;-1.70;99.90;;;;;;5061125;28;20059;-81
2022/12/13 05:55:16;;;;;;;3.20;1.85;;;-1.80;99.90;;;;;;5050160;28;20495;-81
2022/12/13 05:57:45;;;;;;;2.83;1.73;;;-1.70;99.90;;;;;;5058949;28;20048;-81
2022/12/13 06:00:18;;;;;;;3.65;2.03;;;-1.70;99.90;;;;;;5059893;28;20056;-81
2022/12/13 06:02:56;;;;;;;2.88;1.95;;;-1.70;99.90;;;;;;5044197;28;20048;-79
2022/12/13 06:05:28;;;;;;;3.22;1.70;;;-1.70;99.90;;;;;;5059219;28;20135;-81
2022/12/13 06:07:55;;;;;;;3.42;1.77;;;-1.70;99.90;;;;;;5066334;28;20460;-81
2022/12/13 06:10:25;;;;;;;2.50;1.58;;;-1.70;99.90;;;;;;5060787;28;20070;-80
2022/12/13 06:13:03;;;;;;;3.40;2.10;;;-1.60;99.90;;;;;;5040997;28;20123;-78
2022/12/13 06:15:50;;;;;;;2.22;1.40;;;-1.60;99.90;;;;;;5058195;28;20566;-78
2022/12/13 06:18:17;;;;;;;3.67;2.30;;;-1.60;99.90;;;;;;5043020;28;20036;-77
2022/12/13 06:20:43;;;;;;;2.55;2.13;;;-1.60;99.90;;;;;;5043825;28;20052;-77
2022/12/13 06:23:10;;;;;;;3.63;1.73;;;-1.60;99.90;;;;;;5060449;28;20054;-77
2022/12/13 06:25:37;;;;;;;2.55;1.60;;;-1.50;99.90;;;;;;5043422;28;20097;-78
2022/12/13 06:28:04;;;;;;;3.05;1.50;;;-1.50;99.90;;;;;;5059629;28;20152;-76
2022/12/13 06:30:31;;;;;;;2.15;1.70;;;-1.50;99.90;;;;;;5057598;28;20134;-77
2022/12/13 06:32:58;;;;;;;3.60;1.90;;;-1.50;99.90;;;;;;5062514;28;20128;-77
2022/12/13 06:35:25;;;;;;;3.10;1.98;;;-1.40;99.90;;;;;;5057438;28;20083;-78
2022/12/13 06:37:56;;;;;;;2.45;1.63;;;-1.50;99.90;;;;;;5062093;28;20618;-76
2022/12/13 06:40:29;;;;;;;2.75;1.77;;;-1.40;99.90;;;;;;5081781;28;20075;-78
2022/12/13 06:42:56;;;;;;;3.10;2.10;;;-1.40;99.90;;;;;;5051890;28;20156;-79
2022/12/13 06:45:23;;;;;;;3.33;2.20;;;-1.40;99.90;;;;;;5057925;28;20120;-77
2022/12/13 06:47:49;;;;;;;2.63;1.83;;;-1.40;99.90;;;;;;5050659;28;20113;-77
2022/12/13 06:50:16;;;;;;;3.13;1.92;;;-1.40;99.90;;;;;;5054870;28;20063;-78
2022/12/13 06:52:44;;;;;;;3.65;2.30;;;-1.40;99.90;;;;;;5069250;28;20056;-78
2022/12/13 06:55:12;;;;;;;3.55;2.08;;;-1.40;99.90;;;;;;5062098;28;20063;-78
2022/12/13 06:57:39;;;;;;;3.53;2.58;;;-1.40;99.90;;;;;;5050014;28;20072;-77
2022/12/13 07:00:08;;;;;;;3.47;1.90;;;-1.40;99.90;;;;;;5076392;28;20101;-79
2022/12/13 07:02:36;;;;;;;3.80;2.22;;;-1.30;99.90;;;;;;5056191;28;20037;-77
2022/12/13 07:05:04;;;;;;;3.22;2.17;;;-1.30;99.90;;;;;;5049984;28;20750;-77
2022/12/13 07:07:31;;;;;;;2.75;1.70;;;-1.30;99.90;;;;;;5054393;28;20121;-77
2022/12/13 07:09:58;;;;;;;2.90;1.90;;;-1.40;99.90;;;;;;5063120;28;20122;-77
2022/12/13 07:12:25;;;;;;;3.20;2.03;;;-1.40;99.90;;;;;;5062714;28;20041;-78
2022/12/13 07:14:52;;;;;;;3.22;1.92;;;-1.40;99.90;;;;;;5045603;28;20151;-77
2022/12/13 07:17:18;;;;;;;3.42;2.22;;;-1.40;99.90;;;;;;5030059;28;20186;-77
2022/12/13 07:20:03;;;;;;;2.83;2.03;;;-1.40;99.90;;;;;;5046717;28;20056;-78
2022/12/13 07:22:30;;;;;;;3.30;1.70;;;-1.40;99.90;;;;;;5044643;28;20049;-78
2022/12/13 07:25:02;;;;;;;3.92;2.13;;;-1.40;99.90;;;;;;5046415;28;20058;-78
2022/12/13 07:27:29;;;;;;;3.20;2.13;;;-1.40;99.90;;;;;;5045272;28;20044;-78
2022/12/13 07:29:56;;;;;;;2.70;1.90;;;-1.40;99.90;;;;;;5044960;28;20079;-77
2022/12/13 07:32:23;;;;;;;3.13;1.90;;;-1.40;99.90;;;;;;5042747;28;20122;-78
2022/12/13 07:34:50;;;;;;;3.35;2.30;;;-1.40;99.90;;;;;;5062015;28;20405;-78
2022/12/13 07:37:18;;;;;;;3.80;2.08;;;-1.30;99.90;;;;;;5029140;28;20060;-78
2022/12/13 07:39:57;;;;;;;3.05;2.08;;;-1.30;99.90;;;;;;5063922;28;20056;-78
2022/12/13 07:42:29;;;;;;;3.22;2.08;;;-1.30;99.90;;;;;;5059690;28;20106;-78
2022/12/13 07:44:56;;;;;;;3.15;2.45;;;-1.30;99.90;;;;;;5059484;28;20538;-78
2022/12/13 07:47:28;;;;;;;3.88;2.30;;;-1.30;99.90;;;;;;5043185;28;20053;-78
2022/12/13 07:49:55;;;;;;;3.35;2.05;;;-1.30;99.90;;;;;;5043586;28;20528;-77
2022/12/13 07:52:21;;;;;;;3.10;2.33;;;-1.30;99.90;;;;;;5048244;28;20067;-78
2022/12/13 07:54:48;;;;;;;3.75;2.30;;;-1.30;99.90;;;;;;5068147;28;20151;-79
2022/12/13 07:57:15;;;;;;;3.45;2.40;;;-1.30;99.90;;;;;;5034374;28;20048;-79
2022/12/13 07:59:41;;;;;;;3.25;1.83;;;-1.20;99.90;;;;;;5065963;28;20068;-77
2022/12/13 08:02:12;;;;;;;2.95;1.90;;;-1.20;99.90;;;;;;5047355;28;20048;-78
2022/12/13 08:04:39;;;;;;;2.65;1.70;;;-1.20;99.90;;;;;;5044180;28;20144;-79
2022/12/13 08:07:07;;;;;;;3.13;2.03;;;-1.20;99.90;;;;;;5061751;28;20076;-79
2022/12/13 08:09:34;;;;;;;3.75;2.28;;;-1.20;99.90;;;;;;5049649;28;20049;-79
2022/12/13 08:12:01;;;;;;;3.70;2.05;;;-1.20;99.90;;;;;;5067490;28;20130;-79
2022/12/13 08:14:28;;;;;;;3.30;2.20;;;-1.10;99.90;;;;;;5065763;28;20049;-79
2022/12/13 08:16:55;;;;;;;2.90;2.03;;;-1.10;99.90;;;;;;5049519;28;20099;-79
2022/12/13 08:19:22;;;;;;;3.78;2.42;;;-1.10;99.90;;;;;;5050008;28;20135;-77
2022/12/13 08:21:52;;;;;;;3.08;2.10;;;-1.10;99.90;;;;;;5033489;28;20049;-77
2022/12/13 08:24:27;;;;;;;3.78;2.42;;;-1.00;99.90;;;;;;5035695;28;20337;-80
2022/12/13 08:26:56;;;;;;;3.03;1.90;;;-1.10;99.90;;;;;;5033997;28;20053;-77
2022/12/13 08:29:22;;;;;;;4.65;2.78;;;-1.00;99.90;;;;;;5032742;28;20131;-78
2022/12/13 08:32:02;;;;;;;3.75;2.60;;;-1.00;99.90;;;;;;5037168;28;20344;-77
2022/12/13 08:34:29;;;;;;;3.10;2.33;;;-1.00;99.90;;;;;;5049196;28;20048;-78
2022/12/13 08:36:55;;;;;;;3.97;2.15;;;-1.00;99.90;;;;;;5046712;28;20882;-77
2022/12/13 08:39:27;;;;;;;3.47;2.72;;;-1.00;99.90;;;;;;5047214;28;20045;-77
2022/12/13 08:41:54;;;;;;;2.78;1.80;;;-1.00;99.90;;;;;;5046351;28;20052;-77
2022/12/13 08:44:21;;;;;;;2.75;1.70;;;-0.90;99.90;;;;;;5045395;28;20068;-78
2022/12/13 08:46:48;;;;;;;3.60;2.10;;;-0.90;99.90;;;;;;5047132;28;20063;-77
2022/12/13 08:49:15;;;;;;;3.45;2.35;;;-0.90;99.90;;;;;;5045916;28;20045;-77
2022/12/13 08:51:42;;;;;;;2.80;1.85;;;-0.90;99.90;;;;;;5049057;28;20071;-77
2022/12/13 08:54:09;;;;;;;3.03;1.92;;;-0.80;99.90;;;;;;5049249;28;20206;-77
2022/12/13 08:56:37;;;;;;;2.97;1.83;;;-0.80;99.90;;;;;;5046468;28;20456;-78
2022/12/13 08:59:09;;;;;;;3.72;2.13;;;-0.80;99.90;;;;;;5063570;28;20052;-78
2022/12/13 09:01:36;;;;;;;3.33;2.13;;;-0.70;99.90;;;;;;5045446;28;20049;-78
2022/12/13 09:04:03;;;;;;;4.72;1.85;;;-0.60;99.90;;;;;;5054043;28;20578;-77
2022/12/13 09:06:29;;;;;;;3.10;2.10;;;-0.60;99.90;;;;;;5045279;28;20067;-78
2022/12/13 09:08:57;;;;;;;2.50;1.80;;;-0.50;99.90;;;;;;5039486;28;20059;-77
2022/12/13 09:11:29;;;;;;;3.43;2.10;;;-0.50;99.90;;;;;;5072503;28;20130;-77
2022/12/13 09:14:09;;;;;;;2.78;1.92;;;-0.40;99.90;;;;;;5045824;28;20052;-77
2022/12/13 09:16:40;;;;;;;3.05;2.42;;;-0.40;99.90;;;;;;5055622;28;20052;-77
2022/12/13 09:19:16;;;;;;;2.70;1.83;;;-0.30;99.90;;;;;;5052689;28;20048;-76
2022/12/13 09:21:52;;;;;;;3.45;2.05;;;-0.30;99.90;;;;;;5042995;28;20133;-76
2022/12/13 09:24:28;;;;;;;3.80;2.28;;;-0.20;99.90;;;;;;5046315;28;20040;-76
2022/12/13 09:27:03;;;;;;;3.40;2.00;;;-0.20;99.90;;;;;;5059608;28;20060;-76
2022/12/13 09:29:36;;;;;;;2.30;1.60;;;-0.10;99.90;;;;;;5060183;28;20049;-76
2022/12/13 09:32:05;;;;;;;3.63;1.98;;;0.00;99.90;;;;;;5059065;28;20040;-77
2022/12/13 09:34:32;;;;;;;3.22;2.17;;;0.00;99.90;;;;;;5064267;28;20104;-77
2022/12/13 09:36:59;;;;;;;2.72;1.90;;;0.00;99.90;;;;;;5050267;28;20048;-76
2022/12/13 09:39:28;;;;;;;3.97;2.38;;;0.10;99.90;;;;;;5028079;28;20048;-76
2022/12/13 09:41:56;;;;;;;3.33;2.13;;;0.10;99.90;;;;;;5038268;28;20106;-76
2022/12/13 09:44:33;;;;;;;3.75;2.22;;;0.10;99.90;;;;;;5055996;28;20044;-76
2022/12/13 09:47:15;;;;;;;3.60;2.03;;;0.20;99.90;;;;;;5047444;28;20110;-76
2022/12/13 09:49:50;;;;;;;2.88;2.05;;;0.30;99.90;;;;;;5033746;28;20055;-76
2022/12/13 09:52:19;;;;;;;3.03;1.98;;;0.40;99.90;;;;;;5031873;28;20601;-76
2022/12/13 09:54:48;;;;;;;4.32;2.33;;;0.40;99.90;;;;;;5032409;28;20215;-76
2022/12/13 09:57:21;;;;;;;4.95;3.10;;;0.50;99.90;;;;;;5048315;28;20053;-76
2022/12/13 10:00:03;;;;;;;;;;;0.60;99.90;;;;;;5035820;28;20123;-76
2022/12/13 10:02:45;;;;;;;3.45;2.53;;;0.60;99.90;;;;;;5048183;28;20379;-76
2022/12/13 10:05:18;;;;;;;3.55;2.30;;;0.60;99.90;;;;;;5049202;28;20653;-76
2022/12/13 10:08:06;;;;;;;3.42;2.25;;;0.70;99.90;;;;;;5064419;28;20048;-76
2022/12/13 10:10:32;;;;;;;3.58;2.22;;;0.80;99.90;;;;;;5049226;28;20044;-76
2022/12/13 10:13:26;;;;;;;2.85;1.90;;;0.90;99.90;;;;;;5047513;28;20102;-77
2022/12/13 10:15:58;;;;;;;3.55;2.42;;;0.90;99.90;;;;;;5047774;28;20503;-78
2022/12/13 10:18:39;;;;;;;3.70;2.28;;;1.00;99.90;;;;;;5032102;28;20087;-76
2022/12/13 10:21:37;;;;;;;3.38;2.30;;;1.00;99.90;;;;;;5048008;28;20052;-76
2022/12/13 10:24:13;;;;;;;3.70;2.42;;;1.00;99.90;;;;;;5044282;28;20067;-76
2022/12/13 10:26:55;;;;;;;2.75;2.15;;;1.10;99.90;;;;;;5032116;28;20052;-76
2022/12/13 10:29:22;;;;;;;2.97;2.03;;;1.10;99.90;;;;;;5029252;28;20056;-76
2022/12/13 10:31:50;;;;;;;3.40;2.50;;;1.20;99.90;;;;;;5047972;28;20045;-76
2022/12/13 10:34:29;;;;;;;3.17;2.03;;;1.30;99.90;;;;;;5030957;28;20059;-76
2022/12/13 10:36:56;;;;;;;3.45;2.25;;;1.40;99.90;;;;;;5031400;28;20135;-76
2022/12/13 10:39:39;;;;;;;2.72;1.77;;;1.40;99.90;;;;;;5064733;28;20404;-76
2022/12/13 10:42:12;;;;;;;3.40;1.90;;;1.40;99.90;;;;;;5044848;28;20080;-76
2022/12/13 10:44:48;;;;;;;3.38;2.20;;;1.40;99.90;;;;;;5044636;28;20154;-76
2022/12/13 10:47:23;;;;;;;3.38;2.15;;;1.40;99.90;;;;;;5044668;28;20048;-76
2022/12/13 10:49:53;;;;;;;3.70;2.35;;;1.40;99.90;;;;;;5044114;28;20051;-76
2022/12/13 10:52:29;;;;;;;4.15;2.80;;;1.40;99.90;;;;;;5044680;28;20056;-76
2022/12/13 10:55:03;;;;;;;3.13;2.70;;;1.40;99.90;;;;;;5044744;28;20057;-76
2022/12/13 10:57:54;;;;;;;6.10;3.13;;;1.40;99.90;;;;;;5032585;28;20168;-76
2022/12/13 11:00:39;;;;;;;4.22;3.00;;;1.40;99.90;;;;;;5027267;28;20044;-76
2022/12/13 11:03:06;;;;;;;3.70;2.67;;;1.50;99.90;;;;;;5043617;28;20063;-76
2022/12/13 11:05:34;;;;;;;4.10;2.88;;;1.50;99.90;;;;;;5044118;28;20495;-76
2022/12/13 11:08:31;;;;;;;6.63;3.13;;;1.50;99.90;;;;;;5018450;28;20144;-77
2022/12/13 11:11:00;;;;;;;4.50;2.97;;;1.60;99.90;;;;;;5048284;28;20098;-76
2022/12/13 11:13:37;;;;;;;3.63;2.83;;;1.60;99.90;;;;;;5045916;28;20420;-76
2022/12/13 11:16:25;;;;;;;4.18;3.40;;;1.60;99.90;;;;;;5031099;28;20554;-76
2022/12/13 11:18:56;;;;;;;5.10;3.78;;;1.70;99.90;;;;;;5062763;28;20116;-76
2022/12/13 11:21:32;;;;;;;3.42;2.40;;;1.70;99.90;;;;;;5046975;28;20129;-76
2022/12/13 11:24:01;;;;;;;4.05;2.85;;;1.80;99.90;;;;;;5028503;28;20091;-77
2022/12/13 11:26:28;;;;;;;4.43;3.00;;;1.80;99.90;;;;;;5027595;28;20048;-76
2022/12/13 11:29:04;;;;;;;3.70;2.70;;;1.90;99.90;;;;;;5042727;28;20178;-76
2022/12/13 11:31:42;;;;;;;3.95;3.00;;;1.90;99.90;;;;;;5045562;28;20147;-76
2022/12/13 11:34:34;;;;;;;4.93;2.88;;;2.00;99.90;;;;;;5063399;28;20095;-76
2022/12/13 11:37:06;;;;;;;3.10;2.40;;;2.10;99.90;;;;;;5062540;28;20488;-77
2022/12/13 11:39:42;;;;;;;4.20;2.13;;;2.20;99.90;;;;;;5060824;28;20476;-76
2022/12/13 11:42:18;;;;;;;2.88;2.25;;;2.30;99.90;;;;;;5060184;28;20056;-76
2022/12/13 11:44:58;;;;;;;3.15;2.08;;;2.30;99.90;;;;;;5060587;28;20060;-76
2022/12/13 11:47:38;;;;;;;4.32;2.70;;;2.30;99.90;;;;;;5047224;28;20102;-76
2022/12/13 11:50:16;;;;;;;4.03;2.50;;;2.40;99.90;;;;;;5048526;28;20068;-76
2022/12/13 11:53:23;;;;;;;4.15;3.00;;;2.40;99.90;;;;;;5049028;28;20124;-76
2022/12/13 11:55:55;;;;;;;4.20;2.70;;;2.50;99.90;;;;;;5042998;28;20468;-76
2022/12/13 11:58:24;;;;;;;4.32;3.10;;;2.50;99.90;;;;;;5029548;28;20142;-76
2022/12/13 12:01:14;;;;;;;4.93;3.50;;;2.60;99.90;;;;;;5063650;28;20083;-76
2022/12/13 12:03:47;;;;;;;6.47;4.13;;;2.50;99.90;;;;;;5062626;28;20084;-76
2022/12/13 12:06:19;;;;;;;5.50;3.55;;;2.50;99.90;;;;;;5046096;28;20055;-76
2022/12/13 12:08:55;;;;;;;6.10;4.65;;;2.40;99.90;;;;;;5046284;28;20143;-77
2022/12/13 12:11:43;;;;;;;4.35;3.53;;;2.40;99.90;;;;;;5046846;28;20048;-77
2022/12/13 12:14:23;;;;;;;5.05;3.22;;;2.40;99.90;;;;;;5057639;28;20040;-77
2022/12/13 12:16:54;;;;;;;4.40;3.28;;;2.50;99.90;;;;;;5066213;28;20072;-77
2022/12/13 12:19:30;;;;;;;4.45;3.38;;;2.50;99.90;;;;;;5056620;28;20693;-77
2022/12/13 12:22:29;;;;;;;3.90;2.88;;;2.60;99.90;;;;;;5044026;28;20061;-76
2022/12/13 12:25:21;;;;;;;4.25;3.08;;;2.50;99.90;;;;;;5060166;28;20044;-77
2022/12/13 12:27:58;;;;;;;3.63;2.75;;;2.50;99.90;;;;;;5052763;28;20056;-76
2022/12/13 12:30:37;;;;;;;5.75;3.40;;;2.60;99.90;;;;;;5061906;28;20052;-77
2022/12/13 12:33:07;;;;;;;4.82;3.60;;;2.50;99.90;;;;;;5057684;28;20082;-76
2022/12/13 12:36:11;;;;;;;5.25;4.15;;;2.50;99.90;;;;;;5038998;28;20052;-76
2022/12/13 12:38:57;;;;;;;;;;;2.40;99.90;;;;;;5056680;28;20047;-77
2022/12/13 12:41:49;;;;;;;4.68;3.33;;;2.40;99.90;;;;;;5064210;28;19995;-77
2022/12/13 12:44:29;;;;;;;4.72;3.28;;;2.40;99.90;;;;;;5031014;28;20426;-76
2022/12/13 12:47:32;;;;;;;5.60;3.47;;;2.40;99.90;;;;;;5063479;28;20076;-77
2022/12/13 12:50:43;;;;;;;5.45;3.58;;;2.50;99.90;;;;;;5060415;28;20427;-77
2022/12/13 12:53:19;;;;;;;3.92;3.03;;;2.50;99.90;;;;;;5041206;28;20103;-76
2022/12/13 12:56:19;;;;;;;4.22;3.13;;;2.50;99.90;;;;;;5060914;28;20401;-77
2022/12/13 12:58:55;;;;;;;4.43;3.20;;;2.40;99.90;;;;;;5043183;28;20543;-77
2022/12/13 13:01:31;;;;;;;4.53;3.22;;;2.50;99.90;;;;;;5059880;28;20130;-77
2022/12/13 13:04:10;;;;;;;4.50;2.85;;;2.50;99.90;;;;;;5043121;28;20048;-78
2022/12/13 13:06:46;;;;;;;5.03;2.97;;;2.40;99.90;;;;;;5037137;28;20052;-76
2022/12/13 13:09:16;;;;;;;4.20;3.10;;;2.40;99.90;;;;;;5058624;28;20558;-76
2022/12/13 13:11:50;;;;;;;4.22;3.00;;;2.40;99.90;;;;;;5042998;28;20344;-76
2022/12/13 13:14:29;;;;;;;6.72;4.00;;;2.40;99.90;;;;;;5059629;28;20423;-76
2022/12/13 13:16:57;;;;;;;5.93;3.43;;;2.40;99.90;;;;;;5045337;28;20309;-77
2022/12/13 13:19:30;;;;;;;4.57;2.97;;;2.40;99.90;;;;;;5057491;28;20048;-76
2022/12/13 13:22:00;;;;;;;3.13;2.45;;;2.50;99.90;;;;;;5058640;28;20056;-77
2022/12/13 13:24:29;;;;;;;4.68;3.00;;;2.50;99.90;;;;;;5039579;28;20123;-76